createdAt,value
2023-01-10T00:06:31.750Z,93.85
2023-01-10T00:21:33.803Z,93.50
2023-01-10T00:36:35.802Z,93.41
2023-01-10T00:51:38.005Z,93.28
2023-01-10T01:06:40.006Z,93.30
2023-01-10T01:21:42.088Z,93.55
2023-01-10T01:36:44.101Z,93.71
2023-01-10T01:51:52.121Z,93.48
2023-01-10T02:06:56.924Z,93.56
2023-01-10T02:22:13.882Z,93.51
2023-01-10T02:37:36.566Z,93.49
2023-01-10T02:52:38.681Z,93.59
2023-01-10T03:08:11.223Z,93.47
2023-01-10T03:23:15.379Z,93.38
2023-01-10T03:38:32.879Z,93.37
2023-01-10T03:53:37.647Z,93.13
2023-01-10T04:08:39.563Z,93.03
2023-01-10T04:23:41.562Z,93.27
2023-01-10T04:38:43.523Z,93.17
2023-01-10T04:53:45.441Z,93.14
2023-01-10T05:08:48.226Z,92.88
2023-01-10T05:23:50.200Z,92.76
2023-01-10T05:38:52.162Z,92.81
2023-01-10T05:53:54.201Z,92.67
2023-01-10T06:08:56.760Z,92.46
2023-01-10T06:23:58.762Z,92.63
2023-01-10T06:39:00.724Z,92.50
2023-01-10T06:54:02.725Z,92.61
2023-01-10T07:09:06.784Z,92.53
2023-01-10T07:24:09.460Z,92.37
2023-01-10T07:39:11.584Z,92.24
2023-01-10T07:54:14.847Z,92.21
2023-01-10T08:09:17.161Z,92.22
2023-01-10T08:24:19.067Z,92.11
2023-01-10T08:39:26.811Z,91.82
2023-01-10T08:54:28.981Z,91.81
2023-01-10T09:09:30.996Z,91.81
2023-01-10T09:24:32.921Z,91.64
2023-01-10T09:39:34.952Z,91.69
2023-01-10T09:54:41.777Z,91.13
2023-01-10T10:09:44.053Z,90.66
2023-01-10T10:24:57.984Z,90.07
2023-01-10T10:40:05.809Z,89.45
2023-01-10T10:55:14.520Z,89.33
2023-01-10T11:10:22.315Z,89.25
2023-01-10T11:25:24.502Z,88.50
2023-01-10T11:40:32.795Z,88.18
2023-01-10T11:55:38.052Z,87.30
2023-01-10T12:10:40.064Z,86.31
2023-01-10T12:25:43.735Z,85.71
2023-01-10T12:40:56.926Z,85.48
2023-01-10T12:56:05.291Z,85.48
2023-01-10T13:11:12.853Z,85.52
2023-01-10T13:26:14.993Z,85.83
2023-01-10T13:41:36.273Z,85.78
2023-01-10T13:56:43.984Z,86.79
2023-01-10T14:11:45.919Z,87.30
2023-01-10T14:26:48.356Z,88.10
2023-01-10T14:41:55.140Z,88.64
2023-01-10T14:56:57.813Z,89.68
2023-01-10T15:12:02.028Z,89.45
2023-01-10T15:27:13.282Z,89.72
2023-01-10T15:42:15.390Z,90.08
2023-01-10T15:57:28.022Z,90.62
2023-01-10T16:12:55.882Z,90.75
2023-01-10T16:27:58.441Z,91.12
2023-01-10T16:43:18.710Z,91.04
2023-01-10T16:58:21.245Z,91.26
2023-01-10T17:13:30.755Z,91.71
2023-01-10T17:28:32.884Z,91.73
2023-01-10T17:43:35.100Z,91.50
2023-01-10T17:58:37.228Z,91.54
2023-01-10T18:13:39.263Z,91.62
2023-01-10T18:28:44.771Z,91.92
2023-01-10T18:43:47.481Z,92.50
2023-01-10T18:58:49.667Z,92.97
2023-01-10T19:13:56.075Z,92.94
2023-01-10T19:28:58.136Z,92.80
2023-01-10T19:44:02.747Z,92.66
2023-01-10T19:59:04.807Z,93.48
2023-01-10T20:14:28.045Z,93.44
2023-01-10T20:29:30.088Z,93.21
2023-01-10T20:44:32.228Z,93.47
2023-01-10T20:59:34.212Z,93.32
2023-01-10T21:14:36.246Z,93.73
2023-01-10T21:29:38.264Z,94.09
2023-01-10T21:44:40.245Z,93.72
2023-01-10T21:59:42.247Z,93.67
2023-01-10T22:14:44.515Z,94.08
2023-01-10T22:29:46.487Z,94.32
2023-01-10T22:44:48.462Z,93.93
2023-01-10T22:59:50.444Z,94.29
2023-01-10T23:14:52.411Z,93.84
2023-01-10T23:29:54.384Z,94.32
2023-01-10T23:44:56.335Z,94.14
